createdAt,value
2022-08-01T00:02:00.279Z,40.35
2022-08-01T00:04:45.687Z,40.16
2022-08-01T00:07:30.316Z,40.66
2022-08-01T00:10:15.150Z,40.35
2022-08-01T00:12:59.882Z,40.86
2022-08-01T00:15:54.196Z,40.51
2022-08-01T00:18:39.718Z,40.46
2022-08-01T00:21:24.507Z,40.68
2022-08-01T00:24:09.379Z,40.30
2022-08-01T00:27:00.441Z,40.41
2022-08-01T00:30:10.310Z,40.61
2022-08-01T00:32:49.980Z,40.49
2022-08-01T00:35:34.854Z,40.49
2022-08-01T00:38:19.540Z,40.53
2022-08-01T00:41:04.540Z,41.41
2022-08-01T00:43:49.419Z,41.17
2022-08-01T00:46:34.211Z,40.98
2022-08-01T00:49:19.008Z,41.42
2022-08-01T00:52:04.498Z,41.12
2022-08-01T00:54:49.542Z,40.83
2022-08-01T00:58:01.716Z,41.15
2022-08-01T01:00:53.928Z,40.52
2022-08-01T01:03:58.214Z,40.93
2022-08-01T01:06:44.315Z,41.35
2022-08-01T01:09:28.988Z,41.02
2022-08-01T01:12:13.872Z,40.55
2022-08-01T01:14:58.623Z,40.52
2022-08-01T01:17:50.932Z,40.89
2022-08-01T01:20:36.847Z,40.79
2022-08-01T01:23:21.569Z,41.28
2022-08-01T01:26:06.486Z,41.25
2022-08-01T01:28:51.233Z,41.40
2022-08-01T01:31:36.042Z,41.49
2022-08-01T01:34:21.018Z,41.25
2022-08-01T01:37:06.302Z,41.72
2022-08-01T01:39:54.384Z,41.57
2022-08-01T01:42:39.274Z,41.88
2022-08-01T01:45:23.971Z,42.02
2022-08-01T01:48:08.706Z,42.16
2022-08-01T01:50:53.650Z,42.24
2022-08-01T01:53:38.585Z,42.19
2022-08-01T01:56:23.345Z,42.25
2022-08-01T01:59:08.186Z,42.36
2022-08-01T02:02:06.126Z,42.09
2022-08-01T02:04:53.841Z,42.44
2022-08-01T02:07:38.581Z,42.58
2022-08-01T02:10:28.426Z,42.65
2022-08-01T02:13:13.897Z,42.85
2022-08-01T02:15:59.814Z,42.74
2022-08-01T02:18:45.434Z,42.98
2022-08-01T02:21:30.183Z,42.77
2022-08-01T02:24:14.942Z,42.84
2022-08-01T02:26:59.796Z,42.65
2022-08-01T02:29:44.411Z,42.96
2022-08-01T02:32:29.235Z,43.18
2022-08-01T02:35:13.982Z,43.20
2022-08-01T02:37:58.785Z,43.13
2022-08-01T02:40:43.699Z,43.41
2022-08-01T02:43:28.553Z,43.57
2022-08-01T02:46:13.313Z,43.52
2022-08-01T02:49:00.654Z,43.79
2022-08-01T02:51:45.929Z,44.18
2022-08-01T02:54:30.768Z,43.69
2022-08-01T02:57:15.501Z,43.43
2022-08-01T03:00:02.715Z,43.52
2022-08-01T03:02:47.978Z,43.60
2022-08-01T03:05:32.838Z,43.75
2022-08-01T03:08:17.700Z,43.70
2022-08-01T03:11:02.415Z,43.55
2022-08-01T03:13:47.173Z,43.51
2022-08-01T03:16:32.045Z,43.72
2022-08-01T03:19:16.816Z,43.43
2022-08-01T03:22:01.551Z,43.99
2022-08-01T03:24:46.377Z,43.90
2022-08-01T03:27:35.669Z,44.11
2022-08-01T03:30:20.475Z,44.60
2022-08-01T03:33:05.345Z,44.08
2022-08-01T03:35:50.253Z,44.17
2022-08-01T03:38:35.039Z,44.34
2022-08-01T03:41:19.798Z,44.74
2022-08-01T03:44:04.571Z,44.64
2022-08-01T03:46:49.252Z,44.98
2022-08-01T03:49:34.241Z,44.43
2022-08-01T03:52:19.282Z,44.70
2022-08-01T03:55:04.211Z,44.27
2022-08-01T03:57:48.945Z,44.38
2022-08-01T04:00:33.724Z,44.40
2022-08-01T04:03:18.561Z,44.24
2022-08-01T04:06:03.348Z,44.84
2022-08-01T04:08:48.099Z,44.46
2022-08-01T04:11:33.288Z,44.42
2022-08-01T04:14:18.203Z,44.54
2022-08-01T04:17:02.909Z,44.38
2022-08-01T04:19:47.785Z,44.39
2022-08-01T04:22:32.638Z,44.52
2022-08-01T04:25:21.810Z,44.40
2022-08-01T04:28:06.753Z,44.95
2022-08-01T04:30:51.410Z,44.64
2022-08-01T04:33:36.077Z,44.44
2022-08-01T04:36:20.766Z,44.36
2022-08-01T04:39:05.548Z,44.05
2022-08-01T04:41:50.299Z,44.67
2022-08-01T04:44:34.991Z,44.57
2022-08-01T04:47:19.801Z,44.46
2022-08-01T04:50:04.484Z,44.20
2022-08-01T04:52:49.341Z,44.37
2022-08-01T04:55:34.594Z,43.69
2022-08-01T04:58:21.426Z,44.50
2022-08-01T05:01:06.189Z,44.38
2022-08-01T05:03:50.922Z,44.64
2022-08-01T05:06:35.517Z,44.38
2022-08-01T05:09:20.299Z,44.59
2022-08-01T05:12:05.308Z,44.66
2022-08-01T05:14:50.374Z,45.13
2022-08-01T05:17:35.290Z,45.19
2022-08-01T05:20:20.034Z,45.24
2022-08-01T05:23:04.780Z,45.14
2022-08-01T05:25:57.170Z,44.46
2022-08-01T05:28:43.129Z,44.10
2022-08-01T05:31:27.965Z,44.65
2022-08-01T05:34:14.969Z,44.08
2022-08-01T05:37:00.518Z,35.57
2022-08-01T05:39:45.341Z,30.41
2022-08-01T05:42:30.041Z,25.93
2022-08-01T05:45:14.738Z,24.30
2022-08-01T05:47:59.551Z,22.04
2022-08-01T05:50:44.789Z,19.88
2022-08-01T05:53:29.642Z,19.11
2022-08-01T05:56:14.373Z,18.84
2022-08-01T05:58:59.187Z,17.87
2022-08-01T06:01:44.831Z,17.53
2022-08-01T06:04:30.128Z,16.54
2022-08-01T06:07:14.909Z,16.19
2022-08-01T06:09:59.671Z,15.82
2022-08-01T06:12:45.399Z,15.52
2022-08-01T06:15:30.016Z,15.37
2022-08-01T06:18:14.838Z,14.90
2022-08-01T06:20:59.982Z,14.91
2022-08-01T06:23:44.655Z,14.22
2022-08-01T06:26:29.480Z,15.53
2022-08-01T06:29:14.175Z,14.45
2022-08-01T06:31:58.997Z,13.66
2022-08-01T06:34:43.867Z,14.30
2022-08-01T06:37:28.680Z,13.48
2022-08-01T06:40:16.833Z,13.60
2022-08-01T06:43:02.894Z,13.25
2022-08-01T06:45:47.690Z,13.39
2022-08-01T06:48:32.373Z,12.77
2022-08-01T06:51:17.264Z,13.22
2022-08-01T06:54:01.860Z,12.57
2022-08-01T06:56:46.578Z,12.69
2022-08-01T06:59:31.410Z,12.64
2022-08-01T07:02:16.344Z,11.77
2022-08-01T07:05:01.570Z,12.12
2022-08-01T07:07:48.794Z,11.71
2022-08-01T07:10:33.786Z,12.18
2022-08-01T07:13:18.490Z,11.70
2022-08-01T07:16:03.370Z,11.24
2022-08-01T07:18:48.800Z,10.85
2022-08-01T07:21:39.736Z,10.95
2022-08-01T07:24:26.911Z,11.79
2022-08-01T07:27:24.099Z,12.42
2022-08-01T07:30:10.682Z,12.03
2022-08-01T07:32:55.555Z,12.15
2022-08-01T07:35:40.245Z,11.88
2022-08-01T07:38:24.948Z,13.42
2022-08-01T07:41:09.543Z,15.83
2022-08-01T07:43:58.018Z,18.66
2022-08-01T07:46:45.609Z,21.15
2022-08-01T07:49:30.466Z,22.73
2022-08-01T07:52:16.032Z,22.61
2022-08-01T07:55:01.185Z,22.66
2022-08-01T07:57:46.005Z,25.25
2022-08-01T08:00:31.209Z,24.52
2022-08-01T08:03:15.942Z,26.03
2022-08-01T08:06:00.771Z,26.92
2022-08-01T08:08:45.483Z,26.63
2022-08-01T08:11:30.184Z,26.53
2022-08-01T08:14:14.874Z,27.35
2022-08-01T08:16:59.717Z,26.60
2022-08-01T08:19:47.103Z,27.88
2022-08-01T08:22:31.792Z,28.08
2022-08-01T08:25:17.197Z,28.40
2022-08-01T08:28:01.974Z,29.15
2022-08-01T08:30:46.736Z,28.76
2022-08-01T08:33:31.964Z,28.46
2022-08-01T08:36:16.815Z,30.57
2022-08-01T08:39:02.517Z,28.91
2022-08-01T08:41:49.340Z,29.30
2022-08-01T08:44:35.074Z,29.53
2022-08-01T08:47:20.886Z,29.76
2022-08-01T08:50:05.776Z,29.59
2022-08-01T08:52:50.533Z,32.01
2022-08-01T08:55:35.524Z,29.23
2022-08-01T08:58:40.693Z,28.94
2022-08-01T09:01:25.530Z,29.36
2022-08-01T09:04:10.973Z,29.51
2022-08-01T09:06:55.977Z,29.45
2022-08-01T09:09:41.821Z,29.87
2022-08-01T09:12:26.971Z,29.70
2022-08-01T09:15:11.629Z,30.43
2022-08-01T09:17:56.572Z,30.26
2022-08-01T09:20:41.368Z,29.69
2022-08-01T09:23:28.148Z,30.41
2022-08-01T09:26:12.944Z,30.97
2022-08-01T09:28:57.635Z,30.84
2022-08-01T09:31:47.212Z,28.63
2022-08-01T09:34:32.855Z,28.88
2022-08-01T09:37:18.020Z,30.57
2022-08-01T09:40:08.990Z,29.87
2022-08-01T09:42:53.593Z,30.23
2022-08-01T09:45:41.648Z,30.66
2022-08-01T09:48:30.194Z,30.34
2022-08-01T09:51:57.822Z,28.99
2022-08-01T09:54:20.295Z,28.20
2022-08-01T09:57:05.756Z,26.32
2022-08-01T09:59:59.869Z,27.22
2022-08-01T10:02:46.090Z,28.83
2022-08-01T10:05:30.814Z,28.54
2022-08-01T10:08:23.238Z,28.50
2022-08-01T10:11:08.236Z,29.42
2022-08-01T10:13:53.592Z,27.27
2022-08-01T10:16:40.259Z,28.99
2022-08-01T10:19:25.026Z,28.58
2022-08-01T10:22:14.432Z,29.41
2022-08-01T10:25:01.223Z,28.66
2022-08-01T10:27:45.994Z,29.09
2022-08-01T10:30:30.847Z,28.17
2022-08-01T10:33:49.943Z,28.18
2022-08-01T10:36:20.993Z,28.58
2022-08-01T10:39:07.886Z,28.36
2022-08-01T10:41:52.812Z,29.35
2022-08-01T10:44:38.937Z,28.08
2022-08-01T10:47:27.075Z,27.19
2022-08-01T10:50:28.746Z,27.06
2022-08-01T10:53:16.295Z,27.58
2022-08-01T10:56:07.954Z,25.48
2022-08-01T10:58:53.084Z,26.47
2022-08-01T11:01:38.291Z,26.68
2022-08-01T11:04:23.671Z,27.20
2022-08-01T11:07:10.337Z,27.29
2022-08-01T11:09:55.670Z,27.32
2022-08-01T11:12:40.449Z,25.74
2022-08-01T11:15:30.133Z,25.12
2022-08-01T11:18:15.727Z,25.01
2022-08-01T11:21:56.431Z,25.33
2022-08-01T11:24:05.300Z,24.90
2022-08-01T11:26:50.070Z,25.05
2022-08-01T11:29:35.946Z,24.33
2022-08-01T11:32:22.127Z,22.67
2022-08-01T11:35:06.959Z,22.90
2022-08-01T11:37:51.503Z,21.39
2022-08-01T11:40:37.435Z,21.67
2022-08-01T11:43:22.134Z,22.51
2022-08-01T11:46:06.923Z,22.55
2022-08-01T11:48:53.230Z,21.75
2022-08-01T11:51:38.995Z,22.19
2022-08-01T11:54:35.750Z,22.23
2022-08-01T11:57:23.239Z,21.42
2022-08-01T12:00:09.016Z,22.24
2022-08-01T12:02:54.248Z,21.69
2022-08-01T12:05:43.312Z,22.68
2022-08-01T12:08:28.713Z,22.57
2022-08-01T12:11:13.568Z,22.34
2022-08-01T12:13:58.811Z,22.08
2022-08-01T12:16:43.547Z,21.63
2022-08-01T12:19:28.544Z,22.96
2022-08-01T12:22:13.544Z,21.50
2022-08-01T12:24:58.521Z,22.35
2022-08-01T12:27:45.750Z,21.59
2022-08-01T12:30:30.510Z,21.09
2022-08-01T12:33:15.316Z,20.45
2022-08-01T12:35:59.959Z,21.35
2022-08-01T12:38:44.616Z,19.94
2022-08-01T12:41:29.607Z,19.86
2022-08-01T12:44:14.474Z,19.21
2022-08-01T12:46:59.263Z,19.42
2022-08-01T12:49:43.965Z,19.67
2022-08-01T12:52:28.750Z,20.87
2022-08-01T12:55:13.480Z,20.89
2022-08-01T12:57:58.374Z,20.85
2022-08-01T13:00:43.027Z,19.82
2022-08-01T13:03:27.875Z,21.31
2022-08-01T13:06:12.622Z,18.51
2022-08-01T13:08:57.368Z,19.46
2022-08-01T13:11:59.083Z,18.98
2022-08-01T13:14:46.871Z,18.57
2022-08-01T13:17:31.603Z,19.50
2022-08-01T13:20:16.279Z,20.01
2022-08-01T13:23:01.029Z,20.05
2022-08-01T13:25:45.707Z,20.54
2022-08-01T13:28:30.518Z,20.39
2022-08-01T13:31:15.413Z,21.29
2022-08-01T13:34:00.676Z,20.89
2022-08-01T13:36:49.471Z,21.33
2022-08-01T13:39:34.554Z,20.84
2022-08-01T13:42:19.620Z,22.36
2022-08-01T13:45:04.543Z,20.57
2022-08-01T13:48:12.310Z,21.11
2022-08-01T13:51:21.394Z,20.97
2022-08-01T13:54:06.682Z,20.75
2022-08-01T13:56:52.843Z,21.14
2022-08-01T13:59:37.615Z,20.79
2022-08-01T14:02:22.384Z,20.84
2022-08-01T14:05:07.202Z,21.55
2022-08-01T14:07:56.707Z,20.80
2022-08-01T14:10:41.954Z,20.82
2022-08-01T14:13:36.769Z,21.38
2022-08-01T14:16:22.279Z,21.20
2022-08-01T14:19:07.081Z,21.42
2022-08-01T14:21:52.434Z,20.94
2022-08-01T14:24:38.863Z,20.78
2022-08-01T14:27:23.996Z,21.41
2022-08-01T14:30:08.681Z,21.31
2022-08-01T14:32:53.277Z,21.78
2022-08-01T14:36:01.702Z,21.52
2022-08-01T14:38:42.958Z,20.98
2022-08-01T14:41:31.191Z,21.47
2022-08-01T14:44:15.849Z,21.22
2022-08-01T14:47:00.528Z,21.02
2022-08-01T14:49:46.362Z,20.99
2022-08-01T14:52:31.635Z,21.54
2022-08-01T14:55:16.349Z,21.54
2022-08-01T14:58:01.320Z,21.91
2022-08-01T15:00:46.114Z,22.19
2022-08-01T15:03:30.926Z,21.72
2022-08-01T15:06:15.607Z,21.58
2022-08-01T15:09:00.442Z,21.60
2022-08-01T15:11:53.562Z,21.47
2022-08-01T15:14:38.359Z,21.48
2022-08-01T15:17:23.442Z,21.34
2022-08-01T15:20:08.607Z,21.36
2022-08-01T15:22:53.242Z,21.54
2022-08-01T15:25:41.472Z,21.08
2022-08-01T15:28:26.763Z,21.80
2022-08-01T15:31:14.231Z,21.55
2022-08-01T15:33:59.428Z,21.85
2022-08-01T15:36:46.814Z,21.94
2022-08-01T15:39:33.587Z,21.49
2022-08-01T15:42:19.982Z,21.32
2022-08-01T15:45:13.317Z,21.86
2022-08-01T15:48:01.597Z,21.47
2022-08-01T15:50:46.385Z,21.36
2022-08-01T15:53:31.156Z,21.89
2022-08-01T15:56:16.419Z,21.40
2022-08-01T15:59:01.327Z,21.48
2022-08-01T16:01:46.204Z,22.34
2022-08-01T16:04:35.718Z,21.49
2022-08-01T16:07:24.191Z,21.64
2022-08-01T16:10:09.089Z,21.78
2022-08-01T16:12:54.371Z,21.60
2022-08-01T16:15:39.312Z,21.95
2022-08-01T16:18:24.503Z,21.71
2022-08-01T16:21:09.266Z,22.18
2022-08-01T16:23:54.038Z,22.09
2022-08-01T16:26:38.898Z,21.89
2022-08-01T16:29:23.808Z,22.34
2022-08-01T16:32:12.988Z,21.86
2022-08-01T16:35:01.363Z,22.01
2022-08-01T16:37:46.518Z,22.00
2022-08-01T16:40:31.219Z,22.22
2022-08-01T16:43:25.005Z,22.76
2022-08-01T16:46:09.603Z,22.24
2022-08-01T16:48:54.334Z,21.57
2022-08-01T16:51:48.065Z,21.94
2022-08-01T16:54:33.359Z,22.65
2022-08-01T16:57:18.152Z,21.75
2022-08-01T17:00:02.916Z,21.86
2022-08-01T17:02:47.642Z,22.54
2022-08-01T17:05:32.707Z,21.98
2022-08-01T17:08:17.460Z,22.15
2022-08-01T17:11:02.230Z,22.69
2022-08-01T17:13:50.025Z,22.54
2022-08-01T17:16:34.728Z,22.75
2022-08-01T17:19:19.449Z,22.78
2022-08-01T17:22:11.705Z,22.88
2022-08-01T17:24:56.515Z,22.58
2022-08-01T17:27:41.192Z,22.47
2022-08-01T17:30:26.532Z,23.13
2022-08-01T17:33:11.390Z,23.64
2022-08-01T17:35:56.291Z,23.11
2022-08-01T17:38:41.100Z,23.28
2022-08-01T17:41:25.901Z,23.00
2022-08-01T17:44:10.782Z,23.26
2022-08-01T17:46:55.567Z,23.66
2022-08-01T17:49:55.822Z,23.63
2022-08-01T17:52:40.698Z,23.72
2022-08-01T17:55:54.002Z,23.99
2022-08-01T17:58:49.058Z,24.11
2022-08-01T18:01:35.575Z,23.74
2022-08-01T18:04:20.337Z,24.57
2022-08-01T18:07:05.886Z,24.25
2022-08-01T18:09:51.168Z,23.90
2022-08-01T18:12:36.274Z,24.29
2022-08-01T18:15:26.923Z,24.33
2022-08-01T18:18:12.140Z,25.15
2022-08-01T18:20:57.664Z,25.07
2022-08-01T18:23:44.319Z,25.87
2022-08-01T18:26:37.116Z,26.69
2022-08-01T18:29:23.149Z,26.65
2022-08-01T18:32:26.815Z,23.84
2022-08-01T18:35:14.049Z,24.86
2022-08-01T18:37:59.497Z,25.95
2022-08-01T18:40:47.307Z,26.91
2022-08-01T18:43:32.029Z,25.21
2022-08-01T18:46:16.724Z,26.73
2022-08-01T18:49:01.705Z,26.34
2022-08-01T18:51:46.924Z,26.75
2022-08-01T18:54:31.697Z,26.85
2022-08-01T18:57:16.460Z,26.87
2022-08-01T19:00:05.730Z,26.51
2022-08-01T19:02:50.515Z,26.36
2022-08-01T19:05:36.065Z,26.75
2022-08-01T19:08:21.055Z,26.82
2022-08-01T19:11:05.739Z,26.68
2022-08-01T19:13:50.453Z,26.30
2022-08-01T19:16:35.287Z,26.87
2022-08-01T19:19:27.559Z,26.45
2022-08-01T19:22:13.366Z,27.03
2022-08-01T19:24:58.773Z,27.23
2022-08-01T19:27:43.554Z,26.39
2022-08-01T19:30:28.389Z,26.98
2022-08-01T19:33:13.259Z,26.53
2022-08-01T19:35:58.006Z,26.65
2022-08-01T19:38:42.740Z,27.36
2022-08-01T19:41:27.505Z,26.25
2022-08-01T19:44:12.412Z,26.72
2022-08-01T19:46:57.124Z,27.98
2022-08-01T19:49:41.960Z,27.48
2022-08-01T19:52:27.032Z,27.87
2022-08-01T19:55:11.790Z,29.80
2022-08-01T19:58:24.411Z,29.04
2022-08-01T20:01:01.310Z,28.30
2022-08-01T20:03:46.137Z,28.64
2022-08-01T20:06:31.215Z,30.38
2022-08-01T20:09:16.156Z,29.34
2022-08-01T20:12:00.869Z,30.51
2022-08-01T20:14:45.812Z,28.55
2022-08-01T20:17:30.401Z,31.11
2022-08-01T20:20:15.230Z,28.90
2022-08-01T20:23:00.032Z,29.22
2022-08-01T20:25:44.792Z,29.77
2022-08-01T20:28:29.599Z,31.15
2022-08-01T20:31:14.519Z,30.30
2022-08-01T20:33:59.249Z,32.15
2022-08-01T20:36:54.397Z,30.33
2022-08-01T20:39:39.693Z,31.28
2022-08-01T20:42:27.862Z,30.13
2022-08-01T20:45:18.073Z,30.87
2022-08-01T20:48:03.405Z,30.17
2022-08-01T20:50:54.278Z,32.98
2022-08-01T20:53:39.350Z,31.77
2022-08-01T20:56:24.188Z,31.56
2022-08-01T20:59:08.887Z,30.26
2022-08-01T21:01:53.555Z,31.10
2022-08-01T21:04:38.252Z,31.13
2022-08-01T21:07:23.513Z,30.60
2022-08-01T21:10:08.218Z,30.89
2022-08-01T21:12:52.936Z,31.30
2022-08-01T21:15:37.758Z,31.12
2022-08-01T21:18:22.590Z,31.21
2022-08-01T21:21:07.522Z,31.27
2022-08-01T21:23:55.315Z,31.70
2022-08-01T21:26:40.076Z,32.25
2022-08-01T21:29:25.000Z,31.95
2022-08-01T21:32:09.686Z,32.23
2022-08-01T21:34:54.540Z,32.27
2022-08-01T21:37:39.311Z,33.94
2022-08-01T21:40:24.174Z,32.39
2022-08-01T21:43:08.851Z,34.63
2022-08-01T21:45:57.697Z,32.92
2022-08-01T21:48:43.655Z,34.68
2022-08-01T21:51:28.353Z,33.71
2022-08-01T21:54:13.222Z,33.37
2022-08-01T21:56:57.891Z,32.88
2022-08-01T21:59:42.659Z,32.37
2022-08-01T22:02:27.432Z,32.44
2022-08-01T22:05:12.778Z,33.10
2022-08-01T22:07:57.546Z,34.83
2022-08-01T22:10:42.305Z,35.00
2022-08-01T22:13:27.351Z,34.49
2022-08-01T22:16:12.015Z,32.41
2022-08-01T22:18:56.796Z,32.32
2022-08-01T22:21:41.516Z,33.08
2022-08-01T22:24:26.542Z,32.54
2022-08-01T22:27:12.284Z,32.52
2022-08-01T22:29:57.423Z,32.51
2022-08-01T22:32:42.351Z,32.96
2022-08-01T22:35:27.141Z,32.76
2022-08-01T22:38:12.037Z,34.50
2022-08-01T22:40:56.821Z,34.70
2022-08-01T22:43:42.056Z,35.58
2022-08-01T22:46:26.823Z,36.31
2022-08-01T22:49:11.631Z,36.39
2022-08-01T22:51:56.905Z,36.64
2022-08-01T22:54:41.737Z,33.78
2022-08-01T22:57:26.627Z,33.22
2022-08-01T23:00:12.321Z,32.60
2022-08-01T23:02:57.090Z,34.93
2022-08-01T23:05:41.819Z,35.80
2022-08-01T23:08:37.587Z,36.68
2022-08-01T23:11:22.311Z,36.36
2022-08-01T23:14:07.198Z,36.02
2022-08-01T23:16:51.878Z,32.78
2022-08-01T23:19:36.678Z,32.85
2022-08-01T23:22:21.341Z,33.02
2022-08-01T23:25:06.720Z,36.58
2022-08-01T23:28:05.110Z,34.37
2022-08-01T23:30:50.863Z,34.53
2022-08-01T23:33:35.562Z,34.21
2022-08-01T23:36:20.482Z,33.83
2022-08-01T23:39:05.229Z,33.44
2022-08-01T23:41:58.514Z,33.63
2022-08-01T23:44:52.953Z,34.78
2022-08-01T23:47:37.681Z,34.51
2022-08-01T23:50:22.546Z,38.52
2022-08-01T23:53:07.661Z,37.61
2022-08-01T23:55:53.378Z,34.09
2022-08-01T23:58:39.308Z,36.48
